Time;durP1;ratioP1;P1;durP2;ratioP2;P2;SDS_P1;SDS_P2;PMS_P1;PMS_P2;Temp;Humidity;BMP_temperature;BMP_pressure;BME280_temperature;BME280_humidity;BME280_pressure;Samples;Min_cycle;Max_cycle;Signal;HPM_P1;HPM_P2
2023/05/26 00:02:27;;;;;;;18.17;2.90;;;;;;;22.05;30.42;100660.59;4836559;28;20335;-56
2023/05/26 00:05:01;;;;;;;15.00;2.20;;;;;;;22.09;30.24;100661.25;4835035;28;20701;-55
2023/05/26 00:07:31;;;;;;;9.73;2.27;;;;;;;22.18;30.74;100666.91;4835383;28;20348;-56
2023/05/26 00:10:02;;;;;;;11.73;2.50;;;;;;;22.33;30.04;100654.53;4834561;28;20281;-56
2023/05/26 00:12:32;;;;;;;16.70;2.40;;;;;;;22.35;30.31;100665.94;4834591;28;20286;-57
2023/05/26 00:15:03;;;;;;;11.63;2.37;;;;;;;22.46;30.34;100653.81;4834687;28;20316;-58
2023/05/26 00:17:35;;;;;;;8.13;1.87;;;;;;;22.42;29.51;100662.94;4834976;28;20331;-55
2023/05/26 00:20:10;;;;;;;13.23;2.37;;;;;;;22.39;28.78;100653.34;4829613;28;20819;-55
2023/05/26 00:22:41;;;;;;;18.37;3.00;;;;;;;22.38;28.71;100646.28;4835080;28;20784;-56
2023/05/26 00:25:12;;;;;;;12.47;2.60;;;;;;;22.43;29.11;100648.66;4834411;28;20278;-56
2023/05/26 00:27:42;;;;;;;14.73;2.93;;;;;;;22.44;27.99;100659.25;4831965;28;20282;-56
2023/05/26 00:30:13;;;;;;;9.20;2.33;;;;;;;22.52;28.29;100656.13;4826952;28;20509;-56
2023/05/26 00:32:44;;;;;;;13.73;2.40;;;;;;;22.68;29.45;100664.03;4819890;28;20373;-54
2023/05/26 00:35:16;;;;;;;17.20;2.50;;;;;;;22.80;27.26;100658.81;4819608;28;20293;-57
2023/05/26 00:37:46;;;;;;;13.83;2.90;;;;;;;22.85;28.38;100657.69;4815592;28;20287;-57
2023/05/26 00:40:17;;;;;;;11.63;2.63;;;;;;;22.94;27.96;100649.09;4831446;28;20797;-55
2023/05/26 00:42:48;;;;;;;20.03;2.80;;;;;;;22.99;27.27;100657.72;4835686;28;20372;-54
2023/05/26 00:45:18;;;;;;;9.87;2.30;;;;;;;23.07;27.74;100644.78;4835362;28;20282;-57
2023/05/26 00:47:48;;;;;;;23.87;3.20;;;;;;;23.08;27.35;100654.47;4835400;28;20281;-56
2023/05/26 00:50:22;;;;;;;13.00;2.57;;;;;;;23.06;27.42;100653.69;4835563;28;20293;-55
2023/05/26 00:52:53;;;;;;;26.87;3.47;;;;;;;23.11;28.82;100662.25;4835899;28;20372;-56
2023/05/26 00:55:24;;;;;;;9.67;2.67;;;;;;;23.18;28.16;100663.59;4835192;28;20296;-56
2023/05/26 00:57:55;;;;;;;15.97;2.73;;;;;;;23.34;27.80;100673.28;4835652;28;20308;-56
2023/05/26 01:00:26;;;;;;;19.87;2.70;;;;;;;23.27;27.25;100656.00;4833348;28;20286;-56
2023/05/26 01:02:58;;;;;;;8.33;2.30;;;;;;;23.36;28.62;100668.72;4836845;28;20616;-56
2023/05/26 01:05:31;;;;;;;8.63;2.33;;;;;;;23.45;27.79;100665.47;4835483;28;21009;-55
2023/05/26 01:08:02;;;;;;;11.97;2.30;;;;;;;23.48;27.64;100662.63;4834866;28;20307;-55
2023/05/26 01:10:33;;;;;;;10.77;2.20;;;;;;;23.47;26.89;100658.25;4835607;28;20387;-55
2023/05/26 01:13:08;;;;;;;15.47;2.10;;;;;;;23.62;26.63;100656.41;4834987;28;20046;-57
2023/05/26 01:15:42;;;;;;;20.33;2.33;;;;;;;23.72;25.49;100656.66;4825605;28;20278;-55
2023/05/26 01:18:20;;;;;;;22.57;2.60;;;;;;;23.71;26.49;100644.25;4834685;28;20451;-56
2023/05/26 01:20:58;;;;;;;18.17;2.35;;;;;;;23.87;25.90;100655.69;4825463;28;20057;-56
2023/05/26 01:23:58;;;;;;;10.23;1.50;;;;;;;23.94;20.72;100645.44;4812184;28;20141;-56
2023/05/26 01:26:43;;;;;;;21.03;2.33;;;;;;;24.01;21.89;100644.97;4793780;28;20055;-56
2023/05/26 01:29:17;;;;;;;4.27;1.60;;;;;;;24.15;21.09;100645.84;4817177;28;20754;-56
2023/05/26 01:31:48;;;;;;;9.93;1.63;;;;;;;24.18;19.98;100654.50;4805455;28;20082;-57
2023/05/26 01:34:18;;;;;;;11.23;1.80;;;;;;;24.13;18.67;100653.94;4813496;28;20082;-56
2023/05/26 01:36:49;;;;;;;7.23;1.50;;;;;;;24.18;19.90;100653.66;4814170;28;20050;-57
2023/05/26 01:39:19;;;;;;;30.23;2.87;;;;;;;24.30;19.63;100642.13;4832387;28;20054;-56
2023/05/26 01:41:55;;;;;;;11.93;1.97;;;;;;;24.35;19.65;100650.69;4834055;28;20042;-56
2023/05/26 01:44:31;;;;;;;6.57;1.47;;;;;;;24.47;21.68;100639.22;4833420;28;20051;-55
2023/05/26 01:47:03;;;;;;;5.43;1.67;;;;;;;24.64;20.56;100650.56;4838989;28;20046;-53
2023/05/26 01:49:35;;;;;;;15.87;1.83;;;;;;;24.66;18.81;100659.31;4839633;28;20145;-55
2023/05/26 01:52:12;;;;;;;6.83;1.87;;;;;;;24.60;19.08;100649.06;4834640;28;20055;-56
2023/05/26 01:54:48;;;;;;;10.53;1.60;;;;;;;24.56;19.38;100648.38;4838510;28;20090;-53
2023/05/26 01:57:20;;;;;;;29.50;2.80;;;;;;;24.30;19.75;100599.41;4829012;28;20060;-55
2023/05/26 01:59:53;;;;;;;7.03;1.63;;;;;;;24.56;19.65;100647.53;4838123;28;20050;-49
2023/05/26 02:02:24;;;;;;;10.30;1.67;;;;;;;24.64;18.37;100650.56;4836615;28;20141;-54
2023/05/26 02:04:54;;;;;;;11.03;2.07;;;;;;;24.68;18.80;100654.72;4841350;28;20073;-55
2023/05/26 02:07:25;;;;;;;6.47;1.70;;;;;;;24.72;18.98;100658.91;4829267;28;20050;-51
2023/05/26 02:09:55;;;;;;;25.63;2.47;;;;;;;24.72;18.44;100643.72;4827654;28;20046;-54
2023/05/26 02:12:25;;;;;;;5.17;1.60;;;;;;;24.72;18.29;100642.84;4835183;28;20081;-52
2023/05/26 02:14:58;;;;;;;8.53;1.97;;;;;;;24.59;18.13;100647.31;4833363;28;20079;-54
2023/05/26 02:17:28;;;;;;;6.00;1.50;;;;;;;24.46;19.02;100631.28;4830152;28;20051;-52
2023/05/26 02:19:59;;;;;;;17.67;2.60;;;;;;;24.67;19.84;100647.66;4822687;28;20046;-51
2023/05/26 02:22:29;;;;;;;5.97;1.53;;;;;;;24.82;19.16;100627.03;4821260;28;20158;-50
2023/05/26 02:25:00;;;;;;;5.60;1.40;;;;;;;24.87;17.60;100631.09;4820946;28;20055;-50
2023/05/26 02:27:30;;;;;;;13.50;1.97;;;;;;;24.82;17.67;100627.88;4839704;28;20054;-53
2023/05/26 02:30:03;;;;;;;4.90;1.73;;;;;;;24.86;18.11;100628.50;4842055;28;20054;-50
2023/05/26 02:32:34;;;;;;;14.30;2.00;;;;;;;24.94;19.15;100627.03;4841528;28;20074;-50
2023/05/26 02:35:05;;;;;;;4.43;1.37;;;;;;;25.00;17.65;100635.56;4826717;28;20047;-53
2023/05/26 02:37:36;;;;;;;14.87;1.67;;;;;;;25.06;17.63;100630.66;4830550;28;20074;-56
2023/05/26 02:40:09;;;;;;;10.17;1.73;;;;;;;25.03;16.93;100624.66;4839972;28;20044;-55
2023/05/26 02:42:39;;;;;;;7.43;1.50;;;;;;;24.87;17.18;100593.66;4818047;28;20051;-51
2023/05/26 02:45:12;;;;;;;4.60;1.33;;;;;;;25.07;17.99;100631.50;4819800;28;20142;-50
2023/05/26 02:47:43;;;;;;;4.17;1.20;;;;;;;25.04;16.72;100596.97;4818840;28;20051;-51
2023/05/26 02:50:14;;;;;;;6.23;1.90;;;;;;;25.05;17.15;100617.38;4818944;28;20051;-50
2023/05/26 02:52:45;;;;;;;16.00;1.93;;;;;;;25.12;17.87;100618.66;4819901;28;20051;-53
2023/05/26 02:55:15;;;;;;;7.43;1.70;;;;;;;25.14;17.76;100606.03;4815756;28;20494;-55
2023/05/26 02:57:46;;;;;;;12.80;1.53;;;;;;;25.21;18.29;100620.72;4824181;28;20052;-53
2023/05/26 03:00:19;;;;;;;6.37;1.73;;;;;;;25.16;16.38;100601.41;4823130;28;20058;-55
2023/05/26 03:02:49;;;;;;;6.67;1.50;;;;;;;25.06;17.19;100597.69;4814558;28;20075;-49
2023/05/26 03:05:20;;;;;;;20.00;2.10;;;;;;;25.05;17.11;100606.69;4788973;28;20056;-50
2023/05/26 03:07:51;;;;;;;20.87;1.83;;;;;;;24.97;15.86;100605.41;4789571;28;20059;-51
2023/05/26 03:10:21;;;;;;;12.20;1.77;;;;;;;24.96;16.61;100597.50;4789031;28;20051;-51
2023/05/26 03:12:51;;;;;;;10.70;1.90;;;;;;;25.01;16.87;100591.81;4788998;28;20062;-51
2023/05/26 03:15:24;;;;;;;2.47;1.30;;;;;;;25.04;17.07;100594.31;4796510;28;20514;-51
2023/05/26 03:17:55;;;;;;;8.17;1.30;;;;;;;25.04;16.27;100589.81;4804048;28;20061;-53
2023/05/26 03:20:25;;;;;;;69.67;6.63;;;;;;;24.96;16.31;100598.38;4799972;28;20130;-55
2023/05/26 03:22:56;;;;;;;29.97;2.87;;;;;;;24.98;17.03;100584.88;4800267;28;20048;-53
2023/05/26 03:25:26;;;;;;;7.70;1.50;;;;;;;25.12;17.42;100586.56;4789142;28;20063;-52
2023/05/26 03:27:57;;;;;;;6.63;1.37;;;;;;;25.23;16.89;100600.03;4789432;28;20047;-50
2023/05/26 03:30:30;;;;;;;5.23;1.37;;;;;;;25.29;16.54;100586.25;4808124;28;20050;-56
2023/05/26 03:33:02;;;;;;;6.97;1.33;;;;;;;25.30;17.19;100585.25;4804809;28;20047;-55
2023/05/26 03:35:32;;;;;;;5.50;1.50;;;;;;;25.35;17.69;100583.09;4810079;28;20057;-56
2023/05/26 03:38:03;;;;;;;7.77;1.20;;;;;;;25.43;17.01;100579.00;4810031;28;20061;-57
2023/05/26 03:40:33;;;;;;;26.87;2.07;;;;;;;25.35;15.07;100576.91;4809396;28;20118;-58
2023/05/26 03:43:04;;;;;;;10.43;1.83;;;;;;;25.28;16.72;100587.19;4808673;28;20513;-57
2023/05/26 03:45:36;;;;;;;3.93;1.20;;;;;;;25.39;16.39;100578.41;4806029;28;20066;-57
2023/05/26 03:48:08;;;;;;;6.60;1.47;;;;;;;25.42;16.69;100571.97;4805434;28;20134;-56
2023/05/26 03:50:38;;;;;;;13.40;1.50;;;;;;;25.42;16.43;100562.13;4804750;28;20058;-57
2023/05/26 03:53:09;;;;;;;7.10;1.20;;;;;;;25.48;16.84;100576.84;4830457;23;20053;-59
2023/05/26 03:55:40;;;;;;;5.00;1.43;;;;;;;25.52;16.70;100575.66;4876915;28;20916;-64
2023/05/26 03:58:11;;;;;;;7.80;1.40;;;;;;;25.36;16.16;100558.09;4889732;28;20053;-62
2023/05/26 04:00:43;;;;;;;3.70;1.10;;;;;;;25.46;18.06;100574.31;4891432;28;20103;-64
2023/05/26 04:03:14;;;;;;;2.47;1.20;;;;;;;25.51;17.51;100560.56;4874381;28;20064;-63
2023/05/26 04:05:45;;;;;;;10.67;1.50;;;;;;;25.47;16.24;100559.09;4889360;28;20436;-64
2023/05/26 04:08:16;;;;;;;40.70;3.87;;;;;;;25.31;16.45;100560.25;4887563;28;20094;-63
2023/05/26 04:10:46;;;;;;;9.40;1.20;;;;;;;25.13;16.08;100566.88;4896318;28;20081;-64
2023/05/26 04:13:17;;;;;;;6.00;1.53;;;;;;;24.94;16.18;100573.56;4891649;28;20053;-63
2023/05/26 04:15:49;;;;;;;12.03;1.30;;;;;;;24.48;18.07;100480.63;4892110;28;20048;-61
2023/05/26 04:18:21;;;;;;;8.10;1.53;;;;;;;25.03;16.37;100579.22;4892372;28;20420;-61
2023/05/26 04:20:51;;;;;;;3.20;1.10;;;;;;;25.07;18.54;100556.66;4891602;28;20999;-62
2023/05/26 04:23:22;;;;;;;18.40;2.10;;;;;;;25.24;16.68;100575.03;4892268;28;20057;-65
2023/05/26 04:25:55;;;;;;;6.43;1.23;;;;;;;25.25;17.55;100563.34;4888330;28;20044;-64
2023/05/26 04:28:26;;;;;;;9.63;1.60;;;;;;;25.39;17.26;100568.53;4885614;28;20049;-63
2023/05/26 04:31:00;;;;;;;7.17;1.50;;;;;;;25.27;16.13;100558.75;4893569;28;20053;-62
2023/05/26 04:33:31;;;;;;;17.50;2.10;;;;;;;25.35;16.71;100572.41;4890345;28;20130;-63
2023/05/26 04:36:01;;;;;;;8.03;2.17;;;;;;;25.32;16.67;100563.75;4889568;28;20153;-60
2023/05/26 04:38:32;;;;;;;8.13;1.30;;;;;;;25.31;16.60;100573.63;4886575;28;20390;-60
2023/05/26 04:41:06;;;;;;;49.30;4.40;;;;;;;25.29;16.72;100567.50;4891732;28;20036;-61
2023/05/26 04:43:37;;;;;;;6.43;1.37;;;;;;;25.22;16.00;100560.06;4881939;28;20111;-65
2023/05/26 04:46:10;;;;;;;5.03;1.07;;;;;;;25.06;16.12;100557.59;4892135;28;20052;-60
2023/05/26 04:48:41;;;;;;;13.77;1.80;;;;;;;25.08;17.05;100569.03;4890579;28;20055;-61
2023/05/26 04:51:12;;;;;;;12.57;2.80;;;;;;;25.02;15.76;100553.44;4891067;28;20053;-62
2023/05/26 04:53:43;;;;;;;3.73;1.23;;;;;;;24.94;16.34;100568.22;4892779;28;20052;-65
2023/05/26 04:56:13;;;;;;;4.27;1.43;;;;;;;24.88;16.40;100568.63;4903278;28;20063;-65
2023/05/26 04:58:44;;;;;;;5.30;1.63;;;;;;;24.94;17.38;100568.22;4904315;28;20121;-65
2023/05/26 05:01:16;;;;;;;3.27;1.30;;;;;;;24.93;17.73;100565.66;4904035;28;20058;-64
2023/05/26 05:03:46;;;;;;;7.30;1.50;;;;;;;25.02;18.04;100559.66;4897359;28;20479;-60
2023/05/26 05:06:17;;;;;;;7.73;1.67;;;;;;;25.13;18.68;100564.22;4903741;28;20086;-64
2023/05/26 05:08:48;;;;;;;3.40;1.50;;;;;;;25.14;17.20;100566.78;4905510;28;20111;-63
2023/05/26 05:11:18;;;;;;;5.60;1.30;;;;;;;24.94;16.94;100546.84;4905221;28;20381;-63
2023/05/26 05:13:49;;;;;;;2.30;1.50;;;;;;;25.09;17.83;100570.75;4902502;28;20060;-63
2023/05/26 05:16:21;;;;;;;4.43;1.50;;;;;;;25.13;18.21;100566.88;4903140;28;20076;-63
2023/05/26 05:18:53;;;;;;;10.23;2.40;;;;;;;25.06;17.34;100550.44;4904659;28;20872;-64
2023/05/26 05:21:23;;;;;;;5.70;1.73;;;;;;;25.07;18.42;100572.69;4902824;28;20091;-63
2023/05/26 05:23:55;;;;;;;16.63;2.30;;;;;;;25.03;18.78;100560.50;4901017;28;20472;-62
2023/05/26 05:26:25;;;;;;;4.60;2.03;;;;;;;24.90;17.78;100572.06;4902844;28;20052;-61
2023/05/26 05:28:56;;;;;;;6.93;1.63;;;;;;;24.81;18.71;100570.06;4908028;28;20061;-63
2023/05/26 05:31:28;;;;;;;6.43;1.47;;;;;;;24.76;18.77;100577.53;4902472;28;21407;-63
2023/05/26 05:33:59;;;;;;;6.30;1.60;;;;;;;24.62;18.19;100562.50;4902039;28;20255;-65
2023/05/26 05:36:30;;;;;;;6.97;1.70;;;;;;;24.55;19.32;100566.53;4903444;28;20143;-62
2023/05/26 05:39:00;;;;;;;7.50;1.50;;;;;;;24.47;18.38;100553.72;4905120;28;20052;-65
2023/05/26 05:41:31;;;;;;;6.50;1.67;;;;;;;24.33;19.12;100556.47;4904240;28;20139;-61
2023/05/26 05:44:01;;;;;;;9.20;2.00;;;;;;;24.17;18.92;100572.69;4903367;28;20069;-64
2023/05/26 05:46:33;;;;;;;6.07;1.70;;;;;;;24.09;19.30;100559.03;4903956;28;20053;-64
2023/05/26 05:49:04;;;;;;;7.43;1.70;;;;;;;24.04;19.89;100563.81;4904833;28;20056;-63
2023/05/26 05:51:35;;;;;;;4.50;1.60;;;;;;;23.98;20.39;100551.72;4903732;28;20136;-63
2023/05/26 05:54:06;;;;;;;4.43;1.50;;;;;;;23.90;20.70;100543.41;4899062;28;20061;-64
2023/05/26 05:56:36;;;;;;;6.97;1.67;;;;;;;23.83;20.53;100542.94;4908381;28;20461;-61
2023/05/26 05:59:07;;;;;;;3.57;1.70;;;;;;;23.77;21.67;100542.53;4904384;28;20041;-64
2023/05/26 06:01:39;;;;;;;10.47;1.67;;;;;;;23.66;22.37;100552.06;4900730;28;20464;-60
2023/05/26 06:04:10;;;;;;;11.43;3.07;;;;;;;23.55;22.33;100533.25;4901832;28;20583;-64
2023/05/26 06:06:40;;;;;;;11.40;1.93;;;;;;;23.29;22.47;100499.44;4903880;28;20091;-63
2023/05/26 06:09:11;;;;;;;27.97;3.10;;;;;;;23.57;22.96;100526.00;4902856;28;20338;-66
2023/05/26 06:11:43;;;;;;;5.43;1.83;;;;;;;23.48;22.19;100526.59;4901619;28;20550;-61
2023/05/26 06:14:14;;;;;;;5.53;2.03;;;;;;;23.17;22.22;100533.94;4901579;28;20137;-63
2023/05/26 06:16:46;;;;;;;3.67;1.50;;;;;;;23.10;22.76;100516.63;4903715;28;20063;-63
2023/05/26 06:19:16;;;;;;;11.47;2.17;;;;;;;23.17;22.98;100512.63;4895735;28;20062;-64
2023/05/26 06:21:47;;;;;;;3.13;1.70;;;;;;;23.28;23.01;100519.91;4901970;28;20107;-62
2023/05/26 06:24:18;;;;;;;5.83;1.77;;;;;;;23.22;22.42;100507.84;4903257;28;20287;-62
2023/05/26 06:26:48;;;;;;;7.03;1.80;;;;;;;23.21;22.80;100516.81;4904303;28;20382;-64
2023/05/26 06:29:19;;;;;;;13.23;2.47;;;;;;;23.29;23.38;100515.44;4904459;28;20364;-62
2023/05/26 06:31:51;;;;;;;6.87;1.90;;;;;;;23.44;23.49;100493.09;4906057;28;21254;-61
2023/05/26 06:34:21;;;;;;;4.07;1.83;;;;;;;23.57;23.34;100504.66;4899555;28;20279;-61
2023/05/26 06:36:52;;;;;;;4.13;1.63;;;;;;;23.57;22.11;100504.66;4907272;28;20310;-62
2023/05/26 06:39:23;;;;;;;8.00;2.37;;;;;;;23.49;23.14;100499.00;4905648;28;20344;-62
2023/05/26 06:41:56;;;;;;;10.33;1.90;;;;;;;23.45;23.39;100500.13;4901040;28;20106;-63
2023/05/26 06:44:26;;;;;;;10.93;2.10;;;;;;;23.41;23.83;100509.28;4910394;28;20350;-63
2023/05/26 06:46:58;;;;;;;10.83;2.23;;;;;;;23.42;23.50;100511.88;4907913;28;20294;-64
2023/05/26 06:49:29;;;;;;;2.90;1.73;;;;;;;23.30;22.66;100501.16;4906592;28;20294;-62
2023/05/26 06:51:59;;;;;;;7.80;1.97;;;;;;;23.10;22.82;100505.97;4905433;28;20391;-63
2023/05/26 06:54:30;;;;;;;8.93;2.37;;;;;;;22.92;23.38;100512.47;4907262;28;20399;-61
2023/05/26 06:57:02;;;;;;;3.10;1.70;;;;;;;22.87;24.14;100511.91;4906859;28;20611;-64
2023/05/26 06:59:33;;;;;;;5.07;1.90;;;;;;;22.58;23.92;100456.84;4906717;28;21399;-63
2023/05/26 07:02:05;;;;;;;9.00;2.10;;;;;;;22.87;23.04;100517.22;4902551;28;20365;-62
2023/05/26 07:04:36;;;;;;;14.00;2.60;;;;;;;22.86;23.68;100512.84;4901100;28;20312;-63
2023/05/26 07:07:06;;;;;;;6.67;2.17;;;;;;;22.87;23.39;100515.41;4907518;28;20714;-61
2023/05/26 07:09:37;;;;;;;3.77;1.70;;;;;;;22.58;23.46;100472.81;4905761;28;20320;-62
2023/05/26 07:12:08;;;;;;;10.20;1.80;;;;;;;22.80;24.09;100522.09;4904878;28;20364;-61
2023/05/26 07:14:38;;;;;;;5.40;1.83;;;;;;;22.60;23.90;100523.34;4910321;28;21095;-63
2023/05/26 07:17:11;;;;;;;5.30;1.67;;;;;;;22.33;23.81;100526.75;4905879;28;20287;-63
2023/05/26 07:19:41;;;;;;;3.67;1.67;;;;;;;22.13;24.42;100529.75;4906014;28;20287;-63
2023/05/26 07:22:12;;;;;;;6.83;1.83;;;;;;;21.97;24.10;100535.97;4907066;28;20298;-63
2023/05/26 07:24:42;;;;;;;3.17;2.00;;;;;;;21.78;24.70;100514.06;4905885;28;20772;-63
2023/05/26 07:27:13;;;;;;;4.03;1.93;;;;;;;21.79;24.31;100531.75;4905389;28;20997;-64
2023/05/26 07:29:43;;;;;;;9.67;2.67;;;;;;;21.72;23.91;100535.72;4905159;28;20381;-63
2023/05/26 07:32:16;;;;;;;9.43;2.10;;;;;;;21.73;24.83;100530.28;4906331;28;20279;-62
2023/05/26 07:34:47;;;;;;;6.73;2.07;;;;;;;21.68;25.26;100540.34;4895706;28;20299;-64
2023/05/26 07:37:17;;;;;;;6.37;1.83;;;;;;;21.50;24.25;100531.66;4904846;28;20307;-63
2023/05/26 07:39:48;;;;;;;5.33;1.93;;;;;;;21.34;24.22;100530.75;4906304;28;20290;-62
2023/05/26 07:42:18;;;;;;;8.83;1.97;;;;;;;21.25;24.29;100541.94;4906275;28;20290;-64
2023/05/26 07:44:49;;;;;;;11.47;2.53;;;;;;;21.15;24.10;100546.91;4905633;28;20290;-62
2023/05/26 07:47:21;;;;;;;10.10;2.20;;;;;;;21.06;24.95;100548.25;4904833;28;20291;-62
2023/05/26 07:49:52;;;;;;;11.10;2.00;;;;;;;21.01;24.94;100550.31;4906345;28;20291;-61
2023/05/26 07:52:22;;;;;;;10.63;2.03;;;;;;;20.95;24.67;100541.84;4905845;28;20290;-60
2023/05/26 07:54:53;;;;;;;10.53;2.00;;;;;;;20.83;24.59;100551.34;4904661;28;20287;-62
2023/05/26 07:57:26;;;;;;;7.10;1.97;;;;;;;20.72;25.42;100537.75;4901016;28;20302;-61
2023/05/26 07:59:58;;;;;;;14.00;2.57;;;;;;;20.62;25.82;100522.34;4906260;28;20287;-60
2023/05/26 08:02:30;;;;;;;12.77;2.20;;;;;;;20.62;26.41;100543.59;4906461;28;20776;-63
2023/05/26 08:05:01;;;;;;;12.60;2.33;;;;;;;20.54;26.69;100540.44;4914129;28;20659;-64
2023/05/26 08:07:32;;;;;;;17.37;2.20;;;;;;;20.40;26.44;100545.66;4904470;28;20290;-63
2023/05/26 08:10:04;;;;;;;12.17;2.30;;;;;;;20.28;27.19;100535.69;4913259;28;20356;-62
2023/05/26 08:12:35;;;;;;;11.43;2.20;;;;;;;20.07;26.96;100535.84;4963762;28;20283;-62
2023/05/26 08:15:13;;;;;;;11.47;1.97;;;;;;;19.75;27.05;100541.00;4956626;28;20340;-63
2023/05/26 08:17:47;;;;;;;7.23;2.13;;;;;;;19.51;27.92;100515.66;4914190;28;20280;-62
2023/05/26 08:20:18;;;;;;;13.60;2.57;;;;;;;19.63;28.44;100546.88;4904234;28;20311;-61
2023/05/26 08:22:49;;;;;;;20.10;2.50;;;;;;;19.54;28.67;100548.16;4913570;28;20274;-61
2023/05/26 08:25:20;;;;;;;10.97;1.60;;;;;;;19.37;28.66;100562.25;4913963;28;20341;-62
2023/05/26 08:27:50;;;;;;;8.20;2.30;;;;;;;19.16;28.73;100557.97;4913079;28;20293;-63
2023/05/26 08:30:21;;;;;;;7.00;2.00;;;;;;;19.09;28.69;100564.50;4913886;28;20283;-62
2023/05/26 08:32:53;;;;;;;20.90;3.33;;;;;;;19.08;29.12;100565.44;4913017;28;20851;-60
2023/05/26 08:35:27;;;;;;;8.13;2.00;;;;;;;19.00;29.58;100567.59;4913327;28;20473;-61
2023/05/26 08:37:57;;;;;;;11.97;2.30;;;;;;;18.94;29.87;100574.00;4904215;28;20370;-62
2023/05/26 08:40:28;;;;;;;11.13;1.80;;;;;;;18.83;30.16;100563.91;4914743;28;20350;-62
2023/05/26 08:43:00;;;;;;;8.77;1.70;;;;;;;18.79;30.44;100570.28;4923449;28;20624;-62
2023/05/26 08:45:32;;;;;;;25.00;2.63;;;;;;;18.72;30.92;100579.38;4903560;28;20283;-62
2023/05/26 08:48:08;;;;;;;8.87;2.20;;;;;;;18.52;32.15;100562.63;4914460;28;20287;-61
2023/05/26 08:50:39;;;;;;;12.17;2.20;;;;;;;18.54;33.93;100571.34;4905514;28;21806;-61
2023/05/26 08:53:10;;;;;;;6.97;2.70;;;;;;;18.38;35.58;100570.31;4921211;28;20293;-60
2023/05/26 08:55:41;;;;;;;14.40;2.80;;;;;;;18.29;37.47;100581.28;4913132;28;20398;-61
2023/05/26 08:58:12;;;;;;;8.70;2.70;;;;;;;18.20;38.80;100571.97;4911401;28;20315;-61
2023/05/26 09:00:47;;;;;;;11.33;2.57;;;;;;;18.11;40.76;100575.00;4913978;28;20348;-62
2023/05/26 09:03:23;;;;;;;9.80;2.50;;;;;;;17.93;42.77;100567.88;4911418;28;20294;-63
2023/05/26 09:05:54;;;;;;;13.40;3.03;;;;;;;17.93;43.73;100563.44;4903404;28;20302;-61
2023/05/26 09:08:25;;;;;;;10.97;2.70;;;;;;;17.81;44.28;100563.94;4909629;28;20283;-61
2023/05/26 09:10:56;;;;;;;14.70;3.40;;;;;;;17.72;45.34;100564.28;4912453;28;20287;-61
2023/05/26 09:13:27;;;;;;;10.77;2.80;;;;;;;17.30;46.74;100509.63;4900979;28;20276;-62
2023/05/26 09:15:57;;;;;;;12.40;2.73;;;;;;;17.50;46.78;100559.88;4912045;28;20780;-61
2023/05/26 09:18:47;;;;;;;11.77;2.60;;;;;;;17.42;46.97;100551.38;4911002;28;20443;-62
2023/05/26 09:21:23;;;;;;;8.50;2.53;;;;;;;17.38;47.30;100560.38;4911901;28;20279;-62
2023/05/26 09:23:58;;;;;;;11.27;2.30;;;;;;;17.25;47.91;100545.00;4912447;28;20142;-60
2023/05/26 09:26:32;;;;;;;10.73;2.90;;;;;;;17.24;49.25;100559.13;4901331;28;20320;-61
2023/05/26 09:29:05;;;;;;;10.60;2.30;;;;;;;17.20;49.48;100557.53;4907259;28;20291;-61
2023/05/26 09:31:46;;;;;;;8.43;2.23;;;;;;;17.05;50.08;100542.28;4899683;28;20653;-62
2023/05/26 09:34:23;;;;;;;8.90;1.80;;;;;;;17.04;50.26;100545.84;4895085;28;22233;-61
2023/05/26 09:36:53;;;;;;;9.13;2.93;;;;;;;17.02;50.91;100529.19;4902959;28;20282;-59
2023/05/26 09:39:33;;;;;;;9.53;3.23;;;;;;;16.38;51.50;100430.47;4903366;28;20666;-60
2023/05/26 09:42:07;;;;;;;10.98;2.80;;;;;;;16.75;51.51;100497.66;4904220;28;20299;-61
2023/05/26 09:44:41;;;;;;;9.87;2.50;;;;;;;16.97;51.65;100533.78;4894445;28;20110;-62
2023/05/26 09:47:21;;;;;;;13.43;3.00;;;;;;;16.88;51.64;100528.88;4897761;28;20280;-61
2023/05/26 09:50:04;;;;;;;11.97;2.60;;;;;;;16.80;51.74;100531.81;4902504;28;20306;-61
2023/05/26 09:52:36;;;;;;;9.67;3.20;;;;;;;16.68;51.79;100517.28;4892997;28;20283;-61
2023/05/26 09:55:08;;;;;;;14.07;2.53;;;;;;;16.71;51.99;100527.69;4907205;28;20283;-62
2023/05/26 09:57:43;;;;;;;10.03;2.70;;;;;;;16.47;51.97;100479.34;4902439;28;20298;-61
2023/05/26 10:00:16;;;;;;;8.97;2.93;;;;;;;16.60;52.52;100520.19;4902991;28;20271;-62
2023/05/26 10:02:50;;;;;;;17.70;2.60;;;;;;;16.60;51.76;100509.66;4893616;28;20673;-62
2023/05/26 10:05:23;;;;;;;18.27;2.90;;;;;;;16.64;51.81;100513.00;4907054;28;20292;-60
2023/05/26 10:08:14;;;;;;;7.17;2.50;;;;;;;16.65;51.63;100511.22;4903584;28;20288;-61
2023/05/26 10:11:29;;;;;;;8.00;2.60;;;;;;;16.52;52.82;100510.81;4904955;28;20292;-61
2023/05/26 10:14:20;;;;;;;10.33;2.37;;;;;;;16.48;54.13;100514.50;4897125;28;20365;-61
2023/05/26 10:16:54;;;;;;;8.40;2.53;;;;;;;16.41;56.09;100502.47;4896395;28;20287;-61
2023/05/26 10:19:39;;;;;;;4.27;2.40;;;;;;;16.44;56.32;100512.91;4896306;28;20287;-61
2023/05/26 10:22:19;;;;;;;9.50;2.90;;;;;;;16.29;57.41;100499.34;4907840;28;20645;-61
2023/05/26 10:25:00;;;;;;;7.13;2.27;;;;;;;16.20;58.37;100494.44;4896549;28;20290;-61
2023/05/26 10:27:53;;;;;;;9.43;2.90;;;;;;;16.21;59.32;100517.22;4895956;28;20317;-61
2023/05/26 10:30:26;;;;;;;13.47;2.93;;;;;;;16.25;59.70;100534.66;4897314;28;21589;-61
2023/05/26 10:32:58;;;;;;;7.70;2.40;;;;;;;15.97;60.74;100492.59;4896159;28;21024;-61
2023/05/26 10:35:31;;;;;;;10.83;2.20;;;;;;;16.23;60.42;100536.50;4905699;28;20683;-61
2023/05/26 10:38:19;;;;;;;8.40;2.83;;;;;;;16.21;61.25;100543.59;4906798;28;20353;-60
2023/05/26 10:40:53;;;;;;;7.17;2.83;;;;;;;15.99;61.63;100522.38;4897022;28;20283;-61
2023/05/26 10:43:27;;;;;;;5.50;2.67;;;;;;;15.49;61.99;100443.28;4905469;28;20274;-61
2023/05/26 10:46:00;;;;;;;9.70;3.53;;;;;;;15.99;63.01;100532.06;4896056;28;20291;-62
2023/05/26 10:48:37;;;;;;;10.10;2.93;;;;;;;16.03;63.37;100560.91;4906675;28;20307;-61
2023/05/26 10:51:17;;;;;;;8.50;2.83;;;;;;;15.89;63.60;100542.91;4896587;28;20382;-61
2023/05/26 10:53:51;;;;;;;11.07;2.77;;;;;;;15.69;64.05;100529.53;4895955;28;20283;-62
2023/05/26 10:56:27;;;;;;;12.83;2.93;;;;;;;15.89;64.10;100556.09;4910632;28;20280;-61
2023/05/26 10:58:59;;;;;;;10.77;3.07;;;;;;;15.63;63.95;100519.22;4897712;28;21011;-61
2023/05/26 11:01:33;;;;;;;10.83;2.53;;;;;;;15.82;64.37;100565.13;4905860;28;20299;-61
2023/05/26 11:04:12;;;;;;;8.83;2.87;;;;;;;15.83;64.35;100561.59;4904213;28;20298;-61
2023/05/26 11:06:50;;;;;;;13.98;3.20;;;;;;;15.75;64.97;100561.00;4895695;28;20645;-61
2023/05/26 11:09:27;;;;;;;7.63;3.10;;;;;;;15.66;65.00;100555.97;4896193;28;20151;-61
2023/05/26 11:12:00;;;;;;;5.73;2.67;;;;;;;15.66;65.26;100546.28;4894363;28;20358;-61
2023/05/26 11:14:34;;;;;;;9.17;2.77;;;;;;;15.19;65.50;100482.00;4904878;28;20973;-62
2023/05/26 11:17:07;;;;;;;14.57;3.30;;;;;;;15.56;65.79;100555.41;4904634;28;20332;-61
2023/05/26 11:19:40;;;;;;;6.07;2.30;;;;;;;15.47;66.06;100543.38;4905561;28;21029;-61
2023/05/26 11:22:15;;;;;;;14.20;2.97;;;;;;;15.48;66.48;100552.16;4904396;28;20279;-62
2023/05/26 11:24:49;;;;;;;8.97;2.70;;;;;;;15.37;67.07;100565.66;4900618;28;22679;-61
2023/05/26 11:27:25;;;;;;;9.80;3.40;;;;;;;15.31;67.40;100560.59;4906743;28;20336;-61
2023/05/26 11:30:03;;;;;;;7.90;3.10;;;;;;;15.34;67.53;100565.75;4899035;28;20660;-60
2023/05/26 11:32:37;;;;;;;9.67;3.33;;;;;;;15.29;67.60;100562.41;4904373;28;20989;-61
2023/05/26 11:35:23;;;;;;;6.53;2.87;;;;;;;15.18;67.72;100544.31;4895900;28;20357;-61
2023/05/26 11:37:55;;;;;;;12.40;3.67;;;;;;;15.24;68.18;100551.16;4894999;28;20775;-61
2023/05/26 11:40:29;;;;;;;8.70;3.40;;;;;;;15.20;68.59;100554.78;4897677;28;20671;-61
2023/05/26 11:43:01;;;;;;;8.27;3.70;;;;;;;15.18;68.71;100564.53;4905090;28;20071;-62
2023/05/26 11:45:33;;;;;;;6.78;3.08;;;;;;;15.13;68.93;100561.19;4905493;28;20291;-62
2023/05/26 11:48:05;;;;;;;8.55;3.42;;;;;;;15.04;69.63;100557.88;4904654;28;20044;-62